Time;durP1;ratioP1;P1;durP2;ratioP2;P2;SDS_P1;SDS_P2;PMS_P1;PMS_P2;Temp;Humidity;BMP_temperature;BMP_pressure;BME280_temperature;BME280_humidity;BME280_pressure;Samples;Min_cycle;Max_cycle;Signal;HPM_P1;HPM_P2
2022/04/14 00:00:14;;;;;;;15.20;9.20;;;;;;;8.92;56.04;101876.59;5049859;28;20040;-70
2022/04/14 00:02:40;;;;;;;16.63;9.50;;;;;;;8.88;56.16;101863.63;5051230;28;20504;-71
2022/04/14 00:05:07;;;;;;;14.63;9.63;;;;;;;8.90;56.22;101862.72;5053805;28;20151;-69
2022/04/14 00:07:32;;;;;;;15.20;8.57;;;;;;;8.94;56.27;101863.50;5054160;28;20121;-68
2022/04/14 00:09:58;;;;;;;20.02;8.88;;;;;;;8.97;56.51;101869.53;5047322;28;20044;-71
2022/04/14 00:12:24;;;;;;;22.90;8.48;;;;;;;9.01;56.28;101874.69;5049659;28;20029;-74
2022/04/14 00:14:50;;;;;;;15.10;7.82;;;;;;;8.97;56.63;101869.53;5055193;28;20193;-72
2022/04/14 00:17:15;;;;;;;14.10;8.77;;;;;;;9.00;56.47;101862.56;5052468;28;20059;-71
2022/04/14 00:19:41;;;;;;;15.40;7.57;;;;;;;9.01;56.35;101864.25;5053364;28;20029;-70
2022/04/14 00:22:07;;;;;;;13.60;7.13;;;;;;;8.93;56.01;101862.66;5052984;28;20086;-70
2022/04/14 00:24:33;;;;;;;13.30;7.60;;;;;;;8.91;56.32;101851.38;5056088;28;20033;-71
2022/04/14 00:26:58;;;;;;;16.05;7.78;;;;;;;8.80;56.40;101845.50;5047325;28;20407;-68
2022/04/14 00:29:24;;;;;;;13.43;7.13;;;;;;;8.84;56.41;101855.00;5051076;28;20035;-69
2022/04/14 00:31:50;;;;;;;11.80;7.38;;;;;;;8.87;56.49;101846.25;5047902;28;20037;-71
2022/04/14 00:34:15;;;;;;;15.98;7.90;;;;;;;8.81;56.88;101844.63;5054124;28;20029;-72
2022/04/14 00:36:41;;;;;;;15.80;8.10;;;;;;;8.83;56.47;101839.38;5049874;28;20085;-73
2022/04/14 00:39:09;;;;;;;14.48;8.05;;;;;;;8.64;57.26;101838.81;5050187;28;20148;-71
2022/04/14 00:41:36;;;;;;;19.90;8.52;;;;;;;8.82;56.83;101841.13;5050792;28;20508;-72
2022/04/14 00:44:02;;;;;;;18.17;8.70;;;;;;;8.85;56.91;101835.88;5048468;28;20045;-74
2022/04/14 00:46:27;;;;;;;14.63;8.45;;;;;;;8.79;57.06;101838.56;5055695;28;20481;-74
2022/04/14 00:48:53;;;;;;;16.48;9.25;;;;;;;8.84;56.96;101835.88;5054006;28;20231;-73
2022/04/14 00:51:19;;;;;;;18.20;7.80;;;;;;;8.90;56.54;101834.03;5053848;28;20047;-76
2022/04/14 00:53:44;;;;;;;15.32;7.82;;;;;;;8.91;56.36;101845.31;5053797;28;20080;-74
2022/04/14 00:56:10;;;;;;;17.45;9.18;;;;;;;8.69;56.86;101842.19;5040700;28;20032;-76
2022/04/14 00:58:36;;;;;;;16.13;8.75;;;;;;;8.72;56.85;101837.81;5049824;28;20405;-77
2022/04/14 01:01:07;;;;;;;14.25;7.80;;;;;;;8.78;56.64;101842.06;5051429;28;20060;-74
2022/04/14 01:03:34;;;;;;;12.65;7.90;;;;;;;8.82;56.75;101838.50;5038656;28;20349;-69
2022/04/14 01:06:02;;;;;;;14.07;8.20;;;;;;;8.79;56.73;101837.72;5051214;28;20028;-70
2022/04/14 01:08:30;;;;;;;16.52;9.07;;;;;;;8.67;56.92;101829.19;5048004;28;20048;-69
2022/04/14 01:10:56;;;;;;;16.60;8.98;;;;;;;8.46;57.42;101835.59;5048291;28;20115;-69
2022/04/14 01:13:21;;;;;;;14.63;7.82;;;;;;;8.59;57.03;101832.81;5053412;28;20131;-69
2022/04/14 01:15:48;;;;;;;19.27;8.77;;;;;;;8.57;57.24;101836.28;5047805;28;20111;-70
2022/04/14 01:18:15;;;;;;;16.98;7.75;;;;;;;8.59;57.17;101835.41;5049292;28;20040;-69
2022/04/14 01:20:42;;;;;;;17.80;8.18;;;;;;;8.61;57.02;101836.25;5036844;28;20067;-70
2022/04/14 01:23:10;;;;;;;15.00;7.85;;;;;;;8.52;57.03;101834.66;5062227;28;20316;-68
2022/04/14 01:25:36;;;;;;;19.17;8.50;;;;;;;8.50;57.03;101831.22;5051162;28;20079;-78
2022/04/14 01:28:02;;;;;;;14.40;7.32;;;;;;;8.52;57.04;101832.91;5052375;28;20060;-77
2022/04/14 01:30:29;;;;;;;12.73;7.45;;;;;;;8.61;56.64;101846.69;5056699;28;20048;-77
2022/04/14 01:32:54;;;;;;;17.20;7.28;;;;;;;8.41;57.12;101852.22;5052316;28;20377;-74
2022/04/14 01:35:20;;;;;;;15.85;7.90;;;;;;;8.36;57.25;101847.91;5049928;28;20119;-74
2022/04/14 01:37:46;;;;;;;21.88;9.02;;;;;;;8.17;57.82;101849.06;5053259;28;20051;-76
2022/04/14 01:40:12;;;;;;;17.25;7.82;;;;;;;8.20;57.94;101848.16;5064421;28;20029;-76
2022/04/14 01:42:38;;;;;;;13.75;7.22;;;;;;;8.37;57.31;101856.59;5048270;28;20114;-71
2022/04/14 01:45:05;;;;;;;12.82;7.65;;;;;;;8.06;58.24;101851.81;5045025;28;20115;-71
2022/04/14 01:47:31;;;;;;;13.65;7.25;;;;;;;8.30;57.71;101854.97;5049294;28;20036;-67
2022/04/14 01:49:56;;;;;;;13.18;7.70;;;;;;;8.38;56.91;101858.28;5046918;28;20127;-71
2022/04/14 01:52:22;;;;;;;13.70;6.78;;;;;;;8.46;56.99;101851.22;5046424;28;20055;-71
2022/04/14 01:54:48;;;;;;;12.63;7.82;;;;;;;8.47;56.67;101855.56;5053977;28;20052;-68
2022/04/14 01:57:13;;;;;;;15.55;8.30;;;;;;;8.35;56.65;101854.00;5045386;28;20060;-67
2022/04/14 01:59:39;;;;;;;13.40;7.43;;;;;;;8.32;57.03;101848.84;5047263;28;20032;-67
2022/04/14 02:02:04;;;;;;;15.23;7.40;;;;;;;8.00;58.09;101857.09;5045412;28;20028;-67
2022/04/14 02:04:30;;;;;;;18.15;7.50;;;;;;;8.30;57.28;101865.38;5046962;28;20032;-67
2022/04/14 02:06:56;;;;;;;14.77;6.85;;;;;;;8.35;56.93;101860.97;5044130;28;20044;-68
2022/04/14 02:09:21;;;;;;;10.50;6.28;;;;;;;8.42;57.01;101864.34;5032372;28;20021;-68
2022/04/14 02:11:47;;;;;;;19.60;8.10;;;;;;;8.40;56.66;101866.94;5046378;28;20508;-67
2022/04/14 02:14:12;;;;;;;11.80;6.97;;;;;;;8.39;56.54;101865.25;5045602;28;20330;-77
2022/04/14 02:16:38;;;;;;;12.93;7.05;;;;;;;8.36;56.53;101868.75;5066577;28;20421;-72
2022/04/14 02:19:03;;;;;;;12.25;6.28;;;;;;;8.30;56.61;101873.19;5044290;28;20098;-72
2022/04/14 02:21:29;;;;;;;18.20;8.85;;;;;;;8.09;57.64;101872.63;5048767;28;20352;-70
2022/04/14 02:23:54;;;;;;;13.10;7.65;;;;;;;8.12;56.81;101867.34;5035670;28;20731;-70
2022/04/14 02:26:20;;;;;;;18.15;7.40;;;;;;;8.12;56.91;101875.16;5041016;28;20984;-70
2022/04/14 02:28:45;;;;;;;10.13;7.28;;;;;;;8.13;57.04;101874.28;5047143;28;20059;-70
2022/04/14 02:31:11;;;;;;;14.00;7.38;;;;;;;8.13;56.77;101879.47;5046656;28;20033;-77
2022/04/14 02:33:36;;;;;;;10.52;6.72;;;;;;;8.15;56.49;101877.72;5046768;28;20041;-73
2022/04/14 02:36:02;;;;;;;10.95;6.90;;;;;;;8.15;56.35;101872.50;5030461;28;20033;-73
2022/04/14 02:38:28;;;;;;;17.30;7.05;;;;;;;7.92;57.58;101882.41;5048492;28;20048;-75
2022/04/14 02:40:53;;;;;;;13.57;7.00;;;;;;;7.97;57.36;101877.97;5045932;28;20037;-72
2022/04/14 02:43:19;;;;;;;12.02;6.28;;;;;;;7.98;57.03;101874.50;5049347;28;20055;-71
2022/04/14 02:45:44;;;;;;;13.73;7.15;;;;;;;7.96;56.87;101876.28;5064402;28;20108;-71
2022/04/14 02:48:09;;;;;;;10.85;7.35;;;;;;;7.88;56.53;101862.47;5051166;28;20110;-71
2022/04/14 02:50:36;;;;;;;12.50;6.20;;;;;;;7.82;56.67;101863.41;5048925;28;20524;-71
2022/04/14 02:53:02;;;;;;;11.88;6.32;;;;;;;7.80;56.71;101865.19;5048715;28;20076;-71
2022/04/14 02:55:27;;;;;;;13.70;6.88;;;;;;;7.83;56.79;101861.69;5049246;28;20561;-71
2022/04/14 02:57:53;;;;;;;8.68;6.40;;;;;;;7.88;56.54;101860.72;5060600;28;20540;-71
2022/04/14 03:00:18;;;;;;;14.52;6.65;;;;;;;7.84;56.90;101856.44;5049766;28;20036;-71
2022/04/14 03:02:44;;;;;;;13.32;7.10;;;;;;;7.88;56.58;101857.28;5046210;28;20495;-70
2022/04/14 03:05:10;;;;;;;9.93;6.45;;;;;;;7.88;56.38;101859.88;5045356;28;20497;-71
2022/04/14 03:07:36;;;;;;;13.52;7.70;;;;;;;7.84;56.52;101863.41;5064803;28;20162;-71
2022/04/14 03:10:03;;;;;;;16.95;7.32;;;;;;;7.73;56.58;101858.31;5046256;28;20397;-69
2022/04/14 03:12:46;;;;;;;12.23;6.60;;;;;;;7.80;56.63;101866.91;5046517;28;20531;-68
2022/04/14 03:15:13;;;;;;;13.98;6.90;;;;;;;7.82;56.68;101857.34;5046577;28;20045;-69
2022/04/14 03:17:39;;;;;;;12.90;7.05;;;;;;;7.70;56.96;101863.56;5047400;28;20051;-70
2022/04/14 03:20:05;;;;;;;11.57;7.30;;;;;;;7.76;56.60;101860.03;5045839;28;20029;-70
2022/04/14 03:22:35;;;;;;;16.30;8.35;;;;;;;7.73;56.73;101858.31;5045285;28;20427;-71
2022/04/14 03:25:06;;;;;;;17.17;7.72;;;;;;;7.65;56.83;101855.81;5044358;28;20754;-70
2022/04/14 03:27:32;;;;;;;11.07;7.50;;;;;;;7.71;56.73;101855.75;5052262;28;20045;-69
2022/04/14 03:29:58;;;;;;;17.17;8.27;;;;;;;7.74;57.00;101857.47;5046307;28;20062;-69
2022/04/14 03:32:24;;;;;;;15.68;7.20;;;;;;;7.73;56.73;101843.59;5046836;28;20044;-70
2022/04/14 03:34:51;;;;;;;14.00;8.20;;;;;;;7.77;56.52;101856.56;5047408;28;20041;-70
2022/04/14 03:37:16;;;;;;;14.27;8.23;;;;;;;7.73;56.65;101854.00;5049872;28;20703;-71
2022/04/14 03:39:42;;;;;;;16.95;8.20;;;;;;;7.69;55.99;101852.31;5052236;28;20036;-69
2022/04/14 03:42:07;;;;;;;17.25;8.43;;;;;;;7.69;56.15;101848.81;5048309;28;20112;-68
2022/04/14 03:44:33;;;;;;;18.60;9.20;;;;;;;7.66;56.38;101857.53;5052047;28;20036;-69
2022/04/14 03:46:58;;;;;;;17.00;8.05;;;;;;;7.64;56.24;101854.09;5047421;28;20040;-69
2022/04/14 03:49:24;;;;;;;15.00;8.07;;;;;;;7.66;56.13;101862.75;5055053;28;20112;-69
2022/04/14 03:51:49;;;;;;;12.07;6.40;;;;;;;7.59;56.06;101855.03;5038044;28;20041;-69
2022/04/14 03:54:14;;;;;;;20.40;8.82;;;;;;;7.50;55.63;101854.22;5049603;28;20033;-69
2022/04/14 03:56:40;;;;;;;11.15;7.20;;;;;;;7.41;55.75;101861.28;5049644;28;20353;-69
2022/04/14 03:59:05;;;;;;;18.38;8.95;;;;;;;7.37;56.12;101864.78;5047753;28;20420;-69
2022/04/14 04:01:30;;;;;;;13.32;7.78;;;;;;;7.36;56.04;101873.47;5050763;28;20504;-69
2022/04/14 04:03:56;;;;;;;14.18;8.20;;;;;;;7.24;56.48;101866.66;5048236;28;20052;-69
2022/04/14 04:06:21;;;;;;;17.38;8.30;;;;;;;7.22;56.28;101871.88;5051520;28;20029;-72
2022/04/14 04:08:47;;;;;;;14.38;8.65;;;;;;;7.14;56.46;101873.69;5048770;28;20044;-67
2022/04/14 04:11:12;;;;;;;18.42;9.73;;;;;;;7.12;56.70;101871.09;5050717;28;20028;-69
2022/04/14 04:13:37;;;;;;;16.85;9.45;;;;;;;7.09;56.79;101871.13;5048901;28;20048;-69
2022/04/14 04:16:03;;;;;;;19.38;10.48;;;;;;;7.10;56.94;101866.78;5050152;28;20036;-69
2022/04/14 04:18:30;;;;;;;17.42;10.20;;;;;;;7.04;56.60;101872.03;5049162;28;20047;-69
2022/04/14 04:20:56;;;;;;;20.02;9.63;;;;;;;7.06;57.14;101872.88;5049003;28;20133;-69
2022/04/14 04:23:22;;;;;;;19.30;10.63;;;;;;;6.92;57.58;101873.00;5048762;28;20199;-69
2022/04/14 04:25:49;;;;;;;21.42;11.40;;;;;;;7.01;57.29;101875.53;5049138;28;20422;-69
2022/04/14 04:28:14;;;;;;;19.30;9.68;;;;;;;7.03;57.03;101870.31;5049520;28;20310;-70
2022/04/14 04:30:40;;;;;;;23.65;11.75;;;;;;;7.06;57.17;101875.47;5047999;28;20085;-69
2022/04/14 04:33:06;;;;;;;19.77;9.68;;;;;;;7.11;57.23;101874.59;5049729;28;20124;-70
2022/04/14 04:35:31;;;;;;;22.95;13.15;;;;;;;7.08;57.17;101871.13;5052795;28;20032;-70
2022/04/14 04:37:56;;;;;;;20.10;11.13;;;;;;;7.05;57.30;101872.03;5052692;28;20052;-70
2022/04/14 04:40:22;;;;;;;23.83;11.88;;;;;;;6.97;57.41;101868.63;5050217;28;20262;-70
2022/04/14 04:42:47;;;;;;;26.23;10.85;;;;;;;6.96;57.44;101872.13;5023195;28;20139;-72
2022/04/14 04:45:13;;;;;;;20.70;11.10;;;;;;;7.02;57.27;101868.59;5048228;28;20036;-69
2022/04/14 04:47:38;;;;;;;20.55;11.20;;;;;;;7.06;57.39;101873.75;5055593;28;20036;-69
2022/04/14 04:50:07;;;;;;;24.70;11.45;;;;;;;7.08;57.01;101866.78;5033500;28;20024;-69
2022/04/14 04:52:36;;;;;;;20.70;11.82;;;;;;;7.05;57.58;101868.56;5047474;28;20052;-70
2022/04/14 04:55:02;;;;;;;20.05;11.55;;;;;;;7.16;56.89;101877.13;5049563;28;20064;-70
2022/04/14 04:57:27;;;;;;;23.73;11.05;;;;;;;7.18;57.20;101877.13;5050706;28;20131;-77
2022/04/14 04:59:53;;;;;;;23.15;13.40;;;;;;;7.06;56.67;101881.53;5047107;28;20111;-72
2022/04/14 05:02:18;;;;;;;24.98;12.88;;;;;;;7.04;57.21;101877.22;5048105;28;20029;-69
2022/04/14 05:04:44;;;;;;;27.80;12.45;;;;;;;6.99;56.90;101884.22;5046754;28;20477;-70
2022/04/14 05:07:09;;;;;;;24.30;11.27;;;;;;;7.13;56.81;101887.53;5053279;28;20662;-71
2022/04/14 05:09:35;;;;;;;23.13;13.00;;;;;;;7.11;56.78;101886.72;5066770;28;20654;-72
2022/04/14 05:12:01;;;;;;;23.77;12.15;;;;;;;7.20;56.47;101888.34;5037474;28;20078;-70
2022/04/14 05:14:26;;;;;;;24.60;13.10;;;;;;;7.17;56.51;101891.84;5051867;28;20041;-75
2022/04/14 05:16:52;;;;;;;19.25;10.77;;;;;;;7.31;56.60;101895.19;5049755;28;20037;-73
2022/04/14 05:19:17;;;;;;;21.02;11.13;;;;;;;7.31;56.29;101892.59;5050038;28;20590;-72
2022/04/14 05:21:43;;;;;;;24.27;11.95;;;;;;;7.02;56.53;101894.59;5048513;28;20028;-73
2022/04/14 05:24:08;;;;;;;30.35;11.80;;;;;;;7.15;56.51;101903.13;5048772;28;20042;-72
2022/04/14 05:26:34;;;;;;;30.17;12.65;;;;;;;7.31;56.41;101913.41;5055441;28;20076;-73
2022/04/14 05:28:59;;;;;;;23.58;12.73;;;;;;;7.30;56.11;101927.25;5054123;28;20043;-73
2022/04/14 05:31:25;;;;;;;25.58;13.10;;;;;;;7.33;56.10;101921.16;5039717;28;20024;-70
2022/04/14 05:33:50;;;;;;;28.45;13.70;;;;;;;7.37;56.70;101916.81;5034232;28;20528;-69
2022/04/14 05:36:16;;;;;;;27.27;12.10;;;;;;;7.44;56.62;101918.47;5049469;28;20025;-73
2022/04/14 05:38:41;;;;;;;28.40;14.38;;;;;;;7.48;56.28;101920.16;5049053;28;20639;-66
2022/04/14 05:41:08;;;;;;;26.15;13.27;;;;;;;7.79;55.62;101914.66;5051924;28;20464;-70
2022/04/14 05:43:33;;;;;;;26.27;13.48;;;;;;;8.15;54.92;101923.75;5050139;28;20041;-70
2022/04/14 05:45:59;;;;;;;25.60;13.05;;;;;;;8.40;54.64;101921.66;5049055;28;20037;-67
2022/04/14 05:48:25;;;;;;;28.98;13.98;;;;;;;8.57;53.78;101929.25;5049226;28;20127;-67
2022/04/14 05:50:51;;;;;;;22.92;13.40;;;;;;;8.29;53.68;101932.25;5048205;28;20033;-67
2022/04/14 05:53:18;;;;;;;23.38;13.52;;;;;;;8.83;53.50;101923.69;5047129;28;20378;-69
2022/04/14 05:55:47;;;;;;;31.52;13.60;;;;;;;9.85;52.64;101927.94;5048544;28;20029;-68
2022/04/14 05:58:13;;;;;;;25.90;12.45;;;;;;;10.88;49.93;101928.28;5048225;28;20497;-67
2022/04/14 06:00:39;;;;;;;20.10;11.75;;;;;;;11.80;48.41;101933.75;5051003;28;20040;-68
2022/04/14 06:03:05;;;;;;;24.33;13.07;;;;;;;13.92;45.10;101923.41;5046657;28;20067;-69
2022/04/14 06:05:31;;;;;;;25.17;11.27;;;;;;;14.11;39.92;101913.03;5067079;28;20067;-68
2022/04/14 06:07:57;;;;;;;23.35;11.52;;;;;;;13.07;41.92;101929.00;5047816;28;20047;-68
2022/04/14 06:10:24;;;;;;;18.77;11.32;;;;;;;14.77;39.23;101923.59;5057033;28;20028;-68
2022/04/14 06:12:50;;;;;;;17.95;10.30;;;;;;;15.34;37.36;101929.13;5050116;28;20817;-67
2022/04/14 06:15:16;;;;;;;22.13;10.77;;;;;;;16.80;36.15;101925.88;5033963;28;20036;-69
2022/04/14 06:17:43;;;;;;;20.67;11.02;;;;;;;17.31;32.03;101927.72;5046543;28;20784;-71
2022/04/14 06:20:12;;;;;;;16.98;10.73;;;;;;;17.68;34.47;101931.13;5043337;28;20025;-71
2022/04/14 06:22:39;;;;;;;19.15;9.95;;;;;;;19.03;30.92;101924.41;5047063;28;20052;-70
2022/04/14 06:25:12;;;;;;;18.35;9.55;;;;;;;20.08;29.94;101929.47;5046703;28;20067;-68
2022/04/14 06:27:42;;;;;;;14.90;10.05;;;;;;;20.06;27.38;101928.72;5050816;28;20044;-70
2022/04/14 06:30:09;;;;;;;19.40;11.88;;;;;;;20.19;28.29;101939.38;5046595;28;20040;-72
2022/04/14 06:32:35;;;;;;;19.38;11.63;;;;;;;20.52;27.52;101930.19;5020029;28;20508;-72
2022/04/14 06:35:01;;;;;;;15.90;9.68;;;;;;;21.81;26.74;101931.22;5042588;28;20086;-71
2022/04/14 06:37:26;;;;;;;18.75;11.27;;;;;;;21.11;27.12;101937.78;5045136;28;20549;-74
2022/04/14 06:39:52;;;;;;;17.15;10.57;;;;;;;21.92;27.00;101933.94;5043609;28;20021;-73
2022/04/14 06:42:21;;;;;;;21.33;11.40;;;;;;;21.79;26.92;101933.13;5049198;28;20041;-72
2022/04/14 06:44:47;;;;;;;18.70;10.98;;;;;;;22.61;24.95;101931.56;5028263;28;20470;-74
2022/04/14 06:47:13;;;;;;;26.70;12.95;;;;;;;21.63;28.21;101933.38;5047580;28;20077;-72
2022/04/14 06:49:38;;;;;;;19.02;11.73;;;;;;;22.84;25.79;101935.19;5037091;28;20504;-72
2022/04/14 06:52:04;;;;;;;21.20;11.50;;;;;;;22.68;25.46;101926.63;5044650;28;20112;-71
2022/04/14 06:54:29;;;;;;;21.58;13.00;;;;;;;22.83;24.79;101929.97;5050307;28;20041;-71
2022/04/14 06:56:55;;;;;;;21.80;11.98;;;;;;;23.44;24.38;101932.44;5043736;28;20432;-72
2022/04/14 06:59:20;;;;;;;19.15;11.25;;;;;;;23.30;24.49;101923.69;5048033;28;20067;-71
2022/04/14 07:01:46;;;;;;;24.65;12.43;;;;;;;24.06;23.16;101921.25;5044322;28;20209;-71
2022/04/14 07:04:11;;;;;;;18.67;12.57;;;;;;;21.67;25.97;101918.91;5053688;28;20045;-71
2022/04/14 07:06:36;;;;;;;16.92;11.60;;;;;;;22.60;25.11;101921.88;5050664;28;20052;-70
2022/04/14 07:09:02;;;;;;;19.73;11.27;;;;;;;22.97;24.23;101927.94;5047597;28;20040;-71
2022/04/14 07:11:27;;;;;;;19.20;12.57;;;;;;;23.17;24.84;101918.41;5048602;28;20562;-71
2022/04/14 07:13:53;;;;;;;17.27;11.27;;;;;;;23.09;24.54;101925.31;5052651;28;20048;-70
2022/04/14 07:16:19;;;;;;;14.30;9.43;;;;;;;24.21;24.62;101930.66;5050671;28;20480;-72
2022/04/14 07:18:44;;;;;;;25.02;13.57;;;;;;;23.00;25.00;101926.88;5044999;28;20477;-73
2022/04/14 07:21:10;;;;;;;17.25;11.20;;;;;;;23.56;23.85;101924.28;5048718;28;20251;-71
2022/04/14 07:23:36;;;;;;;22.42;12.32;;;;;;;24.54;22.67;101922.66;5064241;22;20035;-67
2022/04/14 07:26:02;;;;;;;17.02;11.82;;;;;;;22.15;26.16;101919.84;5036214;28;20482;-67
2022/04/14 07:28:27;;;;;;;20.77;13.50;;;;;;;20.84;28.73;101922.78;5041616;28;20053;-68
2022/04/14 07:30:53;;;;;;;18.50;12.52;;;;;;;20.51;28.58;101921.38;5039396;28;20041;-68
2022/04/14 07:33:19;;;;;;;17.73;11.73;;;;;;;22.48;25.93;101920.13;5038984;28;20517;-68
2022/04/14 07:35:45;;;;;;;18.67;12.30;;;;;;;23.36;24.74;101930.34;5039248;28;20071;-68
2022/04/14 07:38:11;;;;;;;18.05;11.07;;;;;;;24.09;23.55;101925.47;5036382;28;20044;-68
2022/04/14 07:40:36;;;;;;;15.55;11.02;;;;;;;24.45;23.15;101921.63;5041126;28;20040;-68
2022/04/14 07:43:02;;;;;;;13.00;9.77;;;;;;;21.98;25.65;101922.88;5033385;28;20457;-68
2022/04/14 07:45:28;;;;;;;16.80;10.35;;;;;;;21.61;26.52;101920.16;5040398;28;20033;-68
2022/04/14 07:47:53;;;;;;;19.00;10.25;;;;;;;22.98;24.58;101926.97;5035085;28;20132;-68
2022/04/14 07:50:20;;;;;;;16.17;8.90;;;;;;;24.51;23.02;101921.13;5037860;28;20536;-68
2022/04/14 07:52:55;;;;;;;12.65;9.00;;;;;;;25.42;21.22;101922.28;5037786;28;20036;-69
2022/04/14 07:55:23;;;;;;;14.07;8.85;;;;;;;25.16;22.11;101924.53;5041612;28;20125;-70
2022/04/14 07:57:54;;;;;;;16.77;9.45;;;;;;;24.00;22.40;101916.38;5030798;28;20056;-68
2022/04/14 08:00:20;;;;;;;11.63;7.25;;;;;;;23.78;23.20;101928.75;5041964;28;20029;-68
2022/04/14 08:02:47;;;;;;;11.05;8.05;;;;;;;23.56;23.49;101926.09;5036755;28;20111;-68
2022/04/14 08:05:13;;;;;;;9.07;7.28;;;;;;;23.82;22.90;101924.88;5040421;28;20295;-68
2022/04/14 08:07:38;;;;;;;11.73;7.07;;;;;;;22.37;24.59;101921.78;5034780;28;20037;-67
2022/04/14 08:10:04;;;;;;;12.18;7.40;;;;;;;22.73;24.37;101919.16;5034991;28;20037;-68
2022/04/14 08:12:29;;;;;;;9.70;6.90;;;;;;;24.40;23.51;101921.97;5020944;28;20029;-68
2022/04/14 08:14:55;;;;;;;14.75;7.22;;;;;;;26.12;20.83;101919.72;5033223;28;20394;-68
2022/04/14 08:17:20;;;;;;;9.25;6.63;;;;;;;24.90;22.46;101925.88;5035459;28;20071;-67
2022/04/14 08:19:46;;;;;;;9.35;5.70;;;;;;;23.56;23.34;101923.44;5005816;28;20064;-67
2022/04/14 08:22:11;;;;;;;7.35;5.65;;;;;;;24.90;21.69;101918.72;5034097;28;20120;-68
2022/04/14 08:24:36;;;;;;;9.35;6.30;;;;;;;25.18;21.12;101921.75;5035615;28;20040;-68
2022/04/14 08:27:02;;;;;;;7.85;5.18;;;;;;;25.15;21.66;101921.97;5032122;28;20399;-68
2022/04/14 08:29:29;;;;;;;10.00;5.57;;;;;;;24.97;21.92;101924.41;5033701;28;20037;-68
2022/04/14 08:31:56;;;;;;;7.95;5.10;;;;;;;24.60;22.27;101920.34;5033043;28;20036;-68
2022/04/14 08:34:21;;;;;;;8.65;5.70;;;;;;;24.25;22.17;101931.25;5037039;28;20040;-68
2022/04/14 08:36:47;;;;;;;14.60;5.20;;;;;;;24.54;22.96;101926.19;5029586;28;20033;-69
2022/04/14 08:39:12;;;;;;;9.82;5.95;;;;;;;23.05;23.25;101924.69;5034859;28;20475;-68
2022/04/14 08:41:40;;;;;;;9.13;5.53;;;;;;;23.17;23.64;101926.41;5035964;28;20040;-69
2022/04/14 08:44:10;;;;;;;13.32;7.00;;;;;;;22.39;25.14;101927.84;5032380;28;20066;-69
2022/04/14 08:46:36;;;;;;;10.00;6.38;;;;;;;23.04;24.26;101924.81;5035786;28;20564;-69
2022/04/14 08:49:02;;;;;;;11.05;6.88;;;;;;;22.79;24.95;101932.03;5033719;28;20041;-68
2022/04/14 08:51:33;;;;;;;11.90;6.38;;;;;;;22.66;24.59;101931.22;5034292;28;20146;-69
2022/04/14 08:53:59;;;;;;;13.00;6.68;;;;;;;21.06;26.67;101929.28;5032696;28;20500;-71
2022/04/14 08:56:25;;;;;;;10.10;6.95;;;;;;;20.00;28.29;101928.25;5037575;28;20029;-69
2022/04/14 08:58:54;;;;;;;11.93;7.03;;;;;;;20.39;28.54;101938.09;5031859;28;20056;-69
2022/04/14 09:01:20;;;;;;;12.70;6.72;;;;;;;21.11;26.87;101924.50;5036128;28;20081;-69
2022/04/14 09:03:45;;;;;;;11.48;7.15;;;;;;;21.43;26.56;101929.41;5034230;28;20095;-68
2022/04/14 09:06:11;;;;;;;12.13;7.13;;;;;;;19.36;29.15;101933.06;5024767;28;20120;-68
2022/04/14 09:08:37;;;;;;;8.15;6.15;;;;;;;19.17;29.63;101931.53;5031818;28;20033;-69
2022/04/14 09:11:02;;;;;;;14.00;6.68;;;;;;;18.31;30.84;101939.13;5037038;28;20541;-68
2022/04/14 09:13:28;;;;;;;11.02;6.95;;;;;;;17.44;32.46;101936.72;5036979;28;20685;-69
2022/04/14 09:15:54;;;;;;;11.30;7.00;;;;;;;17.73;32.17;101934.34;5034691;28;20075;-68
2022/04/14 09:18:19;;;;;;;9.50;7.30;;;;;;;16.54;33.70;101944.75;5034981;28;20037;-69
2022/04/14 09:20:48;;;;;;;13.15;6.78;;;;;;;15.74;35.21;101937.88;5033408;28;20041;-67
2022/04/14 09:23:27;;;;;;;10.95;6.28;;;;;;;17.19;33.72;101935.34;5014133;28;20532;-67
2022/04/14 09:26:13;;;;;;;10.50;6.20;;;;;;;18.46;31.48;101937.41;5032072;28;20041;-67
2022/04/14 09:29:03;;;;;;;7.75;6.38;;;;;;;17.91;32.77;101943.09;5033695;28;20150;-69
2022/04/14 09:31:30;;;;;;;10.45;6.57;;;;;;;17.87;32.58;101952.97;5021822;28;20079;-68
2022/04/14 09:33:55;;;;;;;11.68;7.22;;;;;;;18.29;31.48;101956.03;5032057;28;20036;-68
2022/04/14 09:36:23;;;;;;;11.35;7.65;;;;;;;16.62;33.09;101947.84;5034587;28;20331;-67
2022/04/14 09:38:51;;;;;;;15.38;7.97;;;;;;;16.53;33.57;101953.59;5031321;28;20098;-68
2022/04/14 09:41:39;;;;;;;8.40;6.68;;;;;;;15.68;35.22;101943.44;5028813;28;20559;-68
2022/04/14 09:44:10;;;;;;;17.35;6.88;;;;;;;16.10;34.67;101945.06;5033096;28;20037;-67
2022/04/14 09:46:37;;;;;;;12.63;6.85;;;;;;;16.07;34.38;101945.22;5029972;28;20580;-68
2022/04/14 09:49:07;;;;;;;8.85;7.15;;;;;;;15.65;35.57;101938.31;5023095;28;20087;-67
2022/04/14 09:51:35;;;;;;;10.65;6.53;;;;;;;17.17;33.67;101936.38;5034911;28;20041;-69
2022/04/14 09:54:13;;;;;;;11.82;6.55;;;;;;;17.81;31.76;101934.81;5031877;28;20513;-67
2022/04/14 09:56:47;;;;;;;12.85;6.32;;;;;;;17.39;31.61;101930.81;5048975;28;20029;-68
2022/04/14 09:59:21;;;;;;;9.25;6.30;;;;;;;16.66;33.03;101943.28;5032243;28;20040;-68
2022/04/14 10:01:47;;;;;;;9.23;6.72;;;;;;;16.84;33.06;101937.13;5032979;28;20074;-69
2022/04/14 10:04:30;;;;;;;14.38;6.85;;;;;;;16.55;33.11;101935.88;5030788;28;20044;-68
2022/04/14 10:07:07;;;;;;;13.13;6.53;;;;;;;16.94;33.94;101942.81;5023281;28;20131;-68
2022/04/14 10:09:35;;;;;;;11.07;6.57;;;;;;;17.16;32.18;101934.66;5017715;28;20130;-68
2022/04/14 10:12:03;;;;;;;10.55;6.28;;;;;;;17.12;33.39;101930.47;5030245;28;20033;-68
2022/04/14 10:14:29;;;;;;;13.50;7.97;;;;;;;16.78;34.47;101948.03;5034995;28;20292;-67
2022/04/14 10:16:57;;;;;;;19.17;7.80;;;;;;;16.39;34.41;101952.47;4999013;28;20017;-67
2022/04/14 10:19:23;;;;;;;13.35;6.30;;;;;;;15.79;34.06;101951.72;5005421;28;20300;-68
2022/04/14 10:21:49;;;;;;;12.85;7.10;;;;;;;16.11;34.15;101949.44;5034102;28;20056;-68
2022/04/14 10:24:17;;;;;;;12.75;6.45;;;;;;;15.35;35.20;101954.56;5021590;28;20055;-68
2022/04/14 10:26:43;;;;;;;9.48;5.57;;;;;;;14.55;36.37;101945.50;5034421;28;20091;-67
2022/04/14 10:29:12;;;;;;;11.45;5.68;;;;;;;15.51;35.96;101944.19;5020966;28;20056;-69
2022/04/14 10:31:38;;;;;;;7.75;5.30;;;;;;;15.34;36.12;101948.41;5036036;28;20135;-68
2022/04/14 10:34:04;;;;;;;9.48;4.88;;;;;;;16.50;34.18;101944.03;5016113;28;20049;-69
2022/04/14 10:36:42;;;;;;;5.15;4.00;;;;;;;17.91;31.30;101936.00;5020521;28;20218;-68
2022/04/14 10:39:13;;;;;;;6.47;3.83;;;;;;;18.25;30.94;101950.03;5019912;28;20029;-68
2022/04/14 10:41:45;;;;;;;6.38;4.00;;;;;;;18.93;29.78;101957.69;5019174;28;20053;-68
2022/04/14 10:44:10;;;;;;;5.80;4.05;;;;;;;18.60;30.04;101960.44;5024773;28;20033;-68
2022/04/14 10:46:41;;;;;;;7.68;4.38;;;;;;;17.39;31.28;101954.59;5037838;28;20497;-68
2022/04/14 10:49:14;;;;;;;7.53;3.97;;;;;;;16.81;32.65;101964.53;5026089;28;20058;-68
2022/04/14 10:51:40;;;;;;;7.43;4.25;;;;;;;18.00;31.95;101958.44;5036066;28;22058;-68
2022/04/14 10:54:12;;;;;;;6.20;3.55;;;;;;;16.93;32.67;101970.16;5021540;28;20048;-68
2022/04/14 10:56:38;;;;;;;8.25;3.35;;;;;;;18.16;30.79;101959.34;5053032;28;20043;-67
2022/04/14 10:59:04;;;;;;;5.35;3.20;;;;;;;19.24;29.54;101946.13;5037288;28;20049;-68
2022/04/14 11:01:45;;;;;;;6.63;4.20;;;;;;;19.87;28.79;101966.16;5038119;28;20045;-68
2022/04/14 11:04:42;;;;;;;7.93;3.03;;;;;;;19.59;29.33;101961.72;5035862;28;20076;-68
2022/04/14 11:07:19;;;;;;;6.95;3.90;;;;;;;18.89;29.53;101967.59;5011245;28;20063;-68
2022/04/14 11:09:48;;;;;;;7.35;4.57;;;;;;;18.00;31.35;101967.22;5049506;28;20392;-68
2022/04/14 11:12:19;;;;;;;6.10;4.47;;;;;;;16.41;34.07;101976.13;5034179;28;20037;-68
2022/04/14 11:14:47;;;;;;;11.50;4.13;;;;;;;17.14;33.42;101976.16;5035682;28;20078;-69
2022/04/14 11:20:30;;;;;;;7.65;4.78;;;;;;;16.38;34.63;101985.06;5037163;28;20084;-67